Time;durP1;ratioP1;P1;durP2;ratioP2;P2;SDS_P1;SDS_P2;PMS_P1;PMS_P2;Temp;Humidity;BMP_temperature;BMP_pressure;BME280_temperature;BME280_humidity;BME280_pressure;Samples;Min_cycle;Max_cycle;Signal;HPM_P1;HPM_P2
2024/04/12 00:01:41;;;;;;;1.90;1.70;;;16.90;62.70;;;;;;5418191;26;20586;-64
2024/04/12 00:04:15;;;;;;;2.75;2.33;;;16.90;62.60;;;;;;5417216;26;20317;-64
2024/04/12 00:06:52;;;;;;;2.00;1.90;;;16.90;62.60;;;;;;5417663;26;20321;-65
2024/04/12 00:09:18;;;;;;;2.30;2.20;;;16.90;62.70;;;;;;5417851;26;20320;-64
2024/04/12 00:11:48;;;;;;;1.77;1.67;;;16.90;62.70;;;;;;5416682;26;20224;-65
2024/04/12 00:14:14;;;;;;;2.00;1.83;;;16.90;62.70;;;;;;5417816;26;20729;-65
2024/04/12 00:16:43;;;;;;;1.88;1.77;;;16.90;62.70;;;;;;5417467;26;20233;-66
2024/04/12 00:19:12;;;;;;;2.00;1.90;;;16.90;62.70;;;;;;5416939;26;20251;-66
2024/04/12 00:21:41;;;;;;;2.22;2.03;;;16.90;62.70;;;;;;5417818;26;20229;-65
2024/04/12 00:24:11;;;;;;;2.15;1.88;;;16.90;62.70;;;;;;5417712;26;20220;-65
2024/04/12 00:26:40;;;;;;;1.90;1.80;;;16.90;62.70;;;;;;5416971;26;20218;-65
2024/04/12 00:29:08;;;;;;;1.98;1.85;;;16.90;62.70;;;;;;5417769;26;20560;-64
2024/04/12 00:31:42;;;;;;;1.83;1.73;;;16.90;62.70;;;;;;5416858;26;20310;-65
2024/04/12 00:34:08;;;;;;;1.90;1.80;;;16.90;62.80;;;;;;5417612;26;20260;-65
2024/04/12 00:36:34;;;;;;;3.03;2.30;;;16.90;62.70;;;;;;5417473;26;20600;-65
2024/04/12 00:39:00;;;;;;;2.10;1.90;;;16.90;62.70;;;;;;5416225;26;20557;-65
2024/04/12 00:41:26;;;;;;;2.47;1.92;;;16.90;62.70;;;;;;5417562;26;20228;-64
2024/04/12 00:43:52;;;;;;;2.40;1.80;;;16.90;62.80;;;;;;5417080;26;20786;-65
2024/04/12 00:46:28;;;;;;;2.00;1.90;;;16.90;62.80;;;;;;5416660;26;20567;-65
2024/04/12 00:48:57;;;;;;;1.85;1.75;;;16.90;62.80;;;;;;5416963;26;20602;-64
2024/04/12 00:51:24;;;;;;;2.10;2.00;;;16.90;62.80;;;;;;5386357;26;20220;-65
2024/04/12 00:53:56;;;;;;;1.88;1.77;;;16.90;62.90;;;;;;5385239;26;20256;-65
2024/04/12 00:56:22;;;;;;;2.13;2.03;;;16.90;62.80;;;;;;5417348;26;20288;-65
2024/04/12 00:58:48;;;;;;;2.42;1.98;;;16.90;62.80;;;;;;5416776;26;20695;-64
2024/04/12 01:01:16;;;;;;;2.00;1.75;;;16.90;62.80;;;;;;5416361;26;20220;-64
2024/04/12 01:03:47;;;;;;;2.30;2.10;;;16.90;62.80;;;;;;5416656;26;20604;-65
2024/04/12 01:06:18;;;;;;;2.17;1.98;;;16.90;63.70;;;;;;5417274;26;20811;-64
2024/04/12 01:08:44;;;;;;;2.00;1.90;;;16.90;62.90;;;;;;5415921;26;20221;-65
2024/04/12 01:11:11;;;;;;;2.20;2.00;;;16.90;62.90;;;;;;5417054;26;20598;-65
2024/04/12 01:13:37;;;;;;;2.35;1.90;;;16.90;62.90;;;;;;5386199;26;20272;-64
2024/04/12 01:16:05;;;;;;;2.00;1.90;;;16.80;63.60;;;;;;5415812;26;20292;-66
2024/04/12 01:18:32;;;;;;;2.25;2.05;;;16.90;62.90;;;;;;5416993;26;20259;-65
2024/04/12 01:21:00;;;;;;;2.30;2.10;;;16.90;62.90;;;;;;5415789;26;20733;-65
2024/04/12 01:23:27;;;;;;;2.30;2.10;;;16.80;62.80;;;;;;5416999;26;20224;-65
2024/04/12 01:25:54;;;;;;;2.35;2.15;;;16.90;62.90;;;;;;5416495;26;20224;-64
2024/04/12 01:28:20;;;;;;;2.55;1.90;;;16.90;62.90;;;;;;5416055;26;20290;-65
2024/04/12 01:30:46;;;;;;;1.85;1.75;;;16.90;62.90;;;;;;5416391;26;20224;-65
2024/04/12 01:33:12;;;;;;;2.17;1.98;;;16.80;62.80;;;;;;5416910;26;20294;-65
2024/04/12 01:35:41;;;;;;;2.80;2.03;;;16.90;63.00;;;;;;5415916;26;20263;-65
2024/04/12 01:38:18;;;;;;;2.10;1.85;;;16.80;62.80;;;;;;5416800;26;20736;-65
2024/04/12 01:40:47;;;;;;;2.80;2.08;;;16.80;62.80;;;;;;5416418;26;20257;-66
2024/04/12 01:43:13;;;;;;;2.33;2.13;;;16.80;62.90;;;;;;5415826;26;20260;-64
2024/04/12 01:45:39;;;;;;;2.03;1.60;;;16.80;62.90;;;;;;5416557;26;20262;-64
2024/04/12 01:48:06;;;;;;;2.20;2.00;;;16.80;62.90;;;;;;5416453;26;20321;-64
2024/04/12 01:50:34;;;;;;;2.38;2.17;;;16.80;62.90;;;;;;5415639;26;20235;-65
2024/04/12 01:53:09;;;;;;;1.88;1.77;;;16.90;63.00;;;;;;5416178;26;20224;-65
2024/04/12 01:55:34;;;;;;;2.00;1.90;;;16.80;62.90;;;;;;5416451;26;20266;-64
2024/04/12 01:58:01;;;;;;;2.40;2.20;;;16.80;63.00;;;;;;5415276;26;20221;-64
2024/04/12 02:00:26;;;;;;;2.30;2.20;;;16.80;63.00;;;;;;5416233;26;20232;-64
2024/04/12 02:02:59;;;;;;;2.70;2.50;;;16.80;63.10;;;;;;5414593;26;20220;-64
2024/04/12 02:05:32;;;;;;;2.63;2.42;;;16.80;63.20;;;;;;5416456;26;20683;-64
2024/04/12 02:08:19;;;;;;;2.55;2.35;;;16.80;64.00;;;;;;5416042;26;20543;-64
2024/04/12 02:10:46;;;;;;;2.63;2.42;;;16.80;63.20;;;;;;5415096;26;20220;-65
2024/04/12 02:13:20;;;;;;;2.95;2.75;;;16.80;63.10;;;;;;5416173;26;20267;-65
2024/04/12 02:15:52;;;;;;;2.78;2.53;;;16.80;63.20;;;;;;5415545;26;20341;-65
2024/04/12 02:18:20;;;;;;;2.70;2.50;;;16.80;63.10;;;;;;5415326;26;20733;-65
2024/04/12 02:20:47;;;;;;;2.80;2.60;;;16.80;63.20;;;;;;5415678;26;20338;-65
2024/04/12 02:23:16;;;;;;;3.45;2.55;;;16.80;63.20;;;;;;5416113;26;20216;-64
2024/04/12 02:25:42;;;;;;;3.20;2.35;;;16.80;63.20;;;;;;5414690;26;20276;-64
2024/04/12 02:28:12;;;;;;;2.60;2.40;;;16.80;63.20;;;;;;5416007;26;20262;-65
2024/04/12 02:30:44;;;;;;;3.10;2.90;;;16.80;63.20;;;;;;5415890;26;20276;-65
2024/04/12 02:33:16;;;;;;;2.85;2.65;;;16.80;63.20;;;;;;5414999;26;20225;-65
2024/04/12 02:35:43;;;;;;;3.15;2.95;;;16.80;63.30;;;;;;5415393;26;20327;-65
2024/04/12 02:38:15;;;;;;;3.20;2.90;;;16.80;63.30;;;;;;5414946;26;20302;-66
2024/04/12 02:40:44;;;;;;;2.97;2.78;;;16.80;63.30;;;;;;5415350;26;20351;-65
2024/04/12 02:43:10;;;;;;;2.75;2.55;;;16.80;63.30;;;;;;5415724;26;20216;-64
2024/04/12 02:45:36;;;;;;;2.80;2.60;;;16.80;64.10;;;;;;5414596;26;20255;-65
2024/04/12 02:48:06;;;;;;;2.60;2.40;;;16.80;63.30;;;;;;5415283;26;20216;-65
2024/04/12 02:50:32;;;;;;;2.90;2.70;;;16.80;63.30;;;;;;5415507;26;20216;-66
2024/04/12 02:52:58;;;;;;;3.47;3.17;;;16.80;63.30;;;;;;5414366;26;20317;-65
2024/04/12 02:55:30;;;;;;;3.15;2.95;;;16.80;63.30;;;;;;5415504;26;20683;-64
2024/04/12 02:57:56;;;;;;;3.00;2.63;;;16.80;63.30;;;;;;5415001;26;20321;-65
2024/04/12 03:00:23;;;;;;;3.25;2.95;;;16.80;63.30;;;;;;5414554;26;20228;-64
2024/04/12 03:02:52;;;;;;;3.53;3.10;;;16.80;63.30;;;;;;5414846;26;20739;-65
2024/04/12 03:05:21;;;;;;;3.33;3.03;;;16.80;63.30;;;;;;5415361;26;20216;-65
2024/04/12 03:07:47;;;;;;;3.15;2.83;;;16.80;63.30;;;;;;5413994;26;20220;-65
2024/04/12 03:10:18;;;;;;;3.65;2.75;;;16.80;63.30;;;;;;5415222;26;20262;-65
2024/04/12 03:12:51;;;;;;;3.17;2.97;;;16.80;63.30;;;;;;5414699;26;20527;-65
2024/04/12 03:15:19;;;;;;;2.72;2.25;;;16.80;63.30;;;;;;5416292;26;20261;-65
2024/04/12 03:17:48;;;;;;;2.92;2.72;;;16.80;63.30;;;;;;5418280;26;20216;-66
2024/04/12 03:20:18;;;;;;;3.00;2.78;;;16.80;63.30;;;;;;5418577;26;20324;-65
2024/04/12 03:22:44;;;;;;;3.05;2.80;;;16.80;63.30;;;;;;5418366;26;20321;-65
2024/04/12 03:25:10;;;;;;;3.17;2.97;;;16.80;63.30;;;;;;5418623;26;20653;-65
2024/04/12 03:27:35;;;;;;;3.20;2.90;;;16.80;63.30;;;;;;5417789;26;20765;-65
2024/04/12 03:30:01;;;;;;;3.53;3.22;;;16.80;63.30;;;;;;5418147;26;20232;-65
2024/04/12 03:32:32;;;;;;;3.03;2.83;;;16.70;63.30;;;;;;5418462;26;20216;-65
2024/04/12 03:34:59;;;;;;;3.25;2.80;;;16.80;63.30;;;;;;5417333;26;20741;-66
2024/04/12 03:37:36;;;;;;;3.05;2.85;;;16.70;63.30;;;;;;5418485;26;20216;-66
2024/04/12 03:40:20;;;;;;;2.92;2.72;;;16.70;63.30;;;;;;5418152;26;20220;-65
2024/04/12 03:42:46;;;;;;;2.97;2.78;;;16.70;63.20;;;;;;5417265;26;20228;-65
2024/04/12 03:45:15;;;;;;;3.20;2.95;;;16.70;63.20;;;;;;5418288;26;20220;-65
2024/04/12 03:47:44;;;;;;;2.97;2.78;;;16.70;63.30;;;;;;5417787;26;20714;-65
2024/04/12 03:50:13;;;;;;;3.50;2.83;;;16.80;63.30;;;;;;5417354;26;20290;-65
2024/04/12 03:52:44;;;;;;;2.88;2.67;;;16.80;63.30;;;;;;5418111;26;20587;-66
2024/04/12 03:55:10;;;;;;;2.88;2.67;;;16.80;63.30;;;;;;5418326;26;20683;-65
2024/04/12 03:57:39;;;;;;;3.00;2.80;;;16.70;63.30;;;;;;5417316;26;20220;-64
2024/04/12 04:00:13;;;;;;;3.33;3.10;;;16.80;63.40;;;;;;5417994;26;20260;-64
2024/04/12 04:02:48;;;;;;;3.05;2.85;;;16.70;63.30;;;;;;5417166;26;20220;-65
2024/04/12 04:05:14;;;;;;;3.17;2.95;;;16.70;63.30;;;;;;5418153;26;20223;-64
2024/04/12 04:07:46;;;;;;;2.95;2.75;;;16.70;63.40;;;;;;5417824;26;20220;-65
2024/04/12 04:10:20;;;;;;;2.72;2.55;;;16.70;63.40;;;;;;5417215;26;20298;-65
2024/04/12 04:12:49;;;;;;;2.75;2.55;;;16.70;63.40;;;;;;5417552;26;20221;-65
2024/04/12 04:15:17;;;;;;;3.30;3.00;;;16.70;63.40;;;;;;5417778;26;20258;-66
2024/04/12 04:17:48;;;;;;;3.00;2.80;;;16.70;63.40;;;;;;5416712;26;20294;-65
2024/04/12 04:20:14;;;;;;;2.90;2.70;;;16.70;63.40;;;;;;5417938;26;20258;-65
2024/04/12 04:22:40;;;;;;;3.58;3.28;;;16.70;63.50;;;;;;5417552;26;20224;-65
2024/04/12 04:25:11;;;;;;;2.78;2.58;;;16.70;63.40;;;;;;5416815;26;20321;-65
2024/04/12 04:27:37;;;;;;;3.42;3.03;;;16.70;63.40;;;;;;5416775;26;20631;-65
2024/04/12 04:30:05;;;;;;;4.32;3.05;;;16.70;63.40;;;;;;5417372;26;20220;-66
2024/04/12 04:32:31;;;;;;;2.83;2.63;;;16.70;63.40;;;;;;5416859;26;20255;-66
2024/04/12 04:35:05;;;;;;;2.90;2.70;;;16.70;63.50;;;;;;5417148;26;20220;-67
2024/04/12 04:37:34;;;;;;;3.28;3.08;;;16.70;63.50;;;;;;5417660;26;20328;-65
2024/04/12 04:40:09;;;;;;;2.92;2.72;;;16.70;63.40;;;;;;5416353;26;20291;-66
2024/04/12 04:42:36;;;;;;;2.60;2.40;;;16.70;63.50;;;;;;5417489;26;20254;-64
2024/04/12 04:45:07;;;;;;;2.53;2.33;;;16.70;63.40;;;;;;5416149;26;20259;-65
2024/04/12 04:47:33;;;;;;;2.70;2.50;;;16.70;63.40;;;;;;5417563;26;20746;-65
2024/04/12 04:49:59;;;;;;;2.58;2.33;;;16.70;63.50;;;;;;5417011;26;20228;-65
2024/04/12 04:52:33;;;;;;;3.00;2.80;;;16.70;63.40;;;;;;5416629;26;20263;-65
2024/04/12 04:54:59;;;;;;;2.83;2.63;;;16.70;63.40;;;;;;5388035;26;20211;-65
2024/04/12 04:57:24;;;;;;;5.43;2.88;;;16.70;63.50;;;;;;5417270;26;20294;-64
2024/04/12 04:59:50;;;;;;;2.83;2.63;;;16.80;63.50;;;;;;5416094;26;20232;-65
2024/04/12 05:02:19;;;;;;;2.95;2.75;;;16.70;63.50;;;;;;5417288;26;20221;-64
2024/04/12 05:04:50;;;;;;;2.78;2.58;;;16.70;63.50;;;;;;5416811;26;20216;-65
2024/04/12 05:07:15;;;;;;;2.63;2.42;;;16.70;63.50;;;;;;5416399;26;20255;-65
2024/04/12 05:09:41;;;;;;;2.72;2.53;;;16.70;63.50;;;;;;5416799;26;20228;-65
2024/04/12 05:12:06;;;;;;;3.15;2.95;;;16.70;63.50;;;;;;5417244;26;20217;-65
2024/04/12 05:17:04;;;;;;;2.90;2.70;;;16.70;63.60;;;;;;5416628;26;20911;-66
2024/04/12 05:19:31;;;;;;;2.92;2.72;;;16.70;63.60;;;;;;5417028;26;20216;-65
2024/04/12 05:21:59;;;;;;;3.08;2.80;;;16.70;63.60;;;;;;5415815;26;20600;-64
2024/04/12 05:24:25;;;;;;;2.85;2.65;;;16.70;63.60;;;;;;5417033;26;20221;-65
2024/04/12 05:27:01;;;;;;;3.00;2.80;;;16.70;63.50;;;;;;5416215;26;20220;-64
2024/04/12 05:29:28;;;;;;;2.80;2.60;;;16.70;63.50;;;;;;5417063;26;20219;-64
2024/04/12 05:31:56;;;;;;;2.80;2.60;;;16.70;63.50;;;;;;5416538;26;20742;-65
2024/04/12 05:34:22;;;;;;;2.60;2.40;;;16.70;63.50;;;;;;5416003;26;20318;-65
2024/04/12 05:36:48;;;;;;;2.78;2.58;;;16.70;63.50;;;;;;5416313;26;20244;-66
2024/04/12 05:39:13;;;;;;;2.92;2.72;;;16.70;63.50;;;;;;5415107;26;20255;-65
2024/04/12 05:41:40;;;;;;;2.85;2.65;;;16.70;63.50;;;;;;5415927;26;20216;-65
2024/04/12 05:44:09;;;;;;;2.70;2.50;;;16.70;63.50;;;;;;5416705;26;20216;-65
2024/04/12 05:46:39;;;;;;;3.08;2.78;;;16.70;63.50;;;;;;5416665;26;20217;-65
2024/04/12 05:49:09;;;;;;;2.90;2.70;;;16.70;63.40;;;;;;5415519;26;20228;-65
2024/04/12 05:51:39;;;;;;;2.83;2.63;;;16.70;63.50;;;;;;5416661;26;20267;-65
2024/04/12 05:54:15;;;;;;;2.75;2.55;;;16.80;63.50;;;;;;5416557;26;20276;-65
2024/04/12 05:56:47;;;;;;;2.97;2.78;;;16.70;63.40;;;;;;5415224;26;20325;-65
2024/04/12 05:59:16;;;;;;;2.63;2.42;;;16.70;63.40;;;;;;5416504;26;20287;-64
2024/04/12 06:01:46;;;;;;;3.20;2.95;;;16.80;63.40;;;;;;5415999;26;20225;-65
2024/04/12 06:04:18;;;;;;;2.70;2.50;;;16.70;63.30;;;;;;5415622;26;20232;-65
2024/04/12 06:06:44;;;;;;;2.75;2.55;;;16.80;63.40;;;;;;5415916;26;20224;-65
2024/04/12 06:09:22;;;;;;;3.40;3.10;;;16.80;63.40;;;;;;5415529;26;20221;-65
2024/04/12 06:11:51;;;;;;;2.75;2.55;;;16.80;63.40;;;;;;5415826;26;20317;-64
2024/04/12 06:14:17;;;;;;;3.17;2.88;;;16.80;63.50;;;;;;5416208;26;20221;-65
2024/04/12 06:16:46;;;;;;;3.17;2.92;;;16.80;63.50;;;;;;5414742;26;20288;-66
2024/04/12 06:19:12;;;;;;;2.60;2.50;;;16.80;63.50;;;;;;5415971;26;20276;-65
2024/04/12 06:21:38;;;;;;;3.05;2.85;;;16.80;63.50;;;;;;5416100;26;20220;-65
2024/04/12 06:24:08;;;;;;;3.22;2.92;;;16.80;63.50;;;;;;5414935;26;20342;-65
2024/04/12 06:26:39;;;;;;;2.83;2.63;;;16.80;63.50;;;;;;5415928;26;20731;-65
2024/04/12 06:29:08;;;;;;;3.10;2.90;;;16.80;63.50;;;;;;5415945;26;20272;-64
2024/04/12 06:31:36;;;;;;;3.05;2.85;;;16.80;63.50;;;;;;5415137;26;20294;-64
2024/04/12 06:34:05;;;;;;;3.13;2.92;;;16.80;63.60;;;;;;5415531;26;20284;-65
2024/04/12 06:36:33;;;;;;;2.80;2.60;;;16.80;63.60;;;;;;5415771;26;20319;-66
2024/04/12 06:39:04;;;;;;;2.92;2.72;;;16.80;63.60;;;;;;5414475;26;21182;-65
2024/04/12 06:41:30;;;;;;;2.95;2.67;;;16.80;63.60;;;;;;5415790;26;20671;-65
2024/04/12 06:43:56;;;;;;;3.00;2.70;;;16.80;63.60;;;;;;5415468;26;20281;-65
2024/04/12 06:46:27;;;;;;;2.70;2.50;;;16.80;63.60;;;;;;5414683;26;20225;-65
2024/04/12 06:48:59;;;;;;;2.60;2.20;;;16.80;63.60;;;;;;5415183;26;20638;-65
2024/04/12 06:51:26;;;;;;;2.97;2.78;;;16.80;63.70;;;;;;5417812;26;20276;-66
2024/04/12 06:53:54;;;;;;;3.15;2.95;;;16.80;63.60;;;;;;5418361;26;20272;-65
2024/04/12 06:56:20;;;;;;;2.60;2.40;;;16.90;63.70;;;;;;5418956;26;20255;-65
2024/04/12 06:58:46;;;;;;;2.58;2.38;;;16.90;63.60;;;;;;5417684;26;20228;-65
2024/04/12 07:01:12;;;;;;;2.80;2.60;;;16.90;63.40;;;;;;5418914;26;20225;-64
2024/04/12 07:03:40;;;;;;;2.80;2.60;;;16.90;63.40;;;;;;5418984;26;20220;-64
2024/04/12 07:06:07;;;;;;;3.88;2.60;;;16.90;63.40;;;;;;5417618;26;20691;-65
2024/04/12 07:08:33;;;;;;;2.50;2.30;;;16.90;63.30;;;;;;5418849;26;20670;-65
2024/04/12 07:11:06;;;;;;;2.90;2.70;;;16.90;63.30;;;;;;5418466;26;20217;-65
2024/04/12 07:13:33;;;;;;;2.80;2.60;;;16.90;63.30;;;;;;5417993;26;20313;-65
2024/04/12 07:16:02;;;;;;;2.80;2.60;;;16.90;63.30;;;;;;5416513;26;20798;-65
2024/04/12 07:18:29;;;;;;;2.92;2.72;;;16.90;63.30;;;;;;5417393;26;20820;-65
2024/04/12 07:21:14;;;;;;;3.28;2.78;;;16.90;63.40;;;;;;5416540;26;20298;-65
2024/04/12 07:23:42;;;;;;;3.08;2.67;;;16.90;63.40;;;;;;5418412;26;20225;-65
2024/04/12 07:26:09;;;;;;;3.47;3.17;;;16.90;63.40;;;;;;5418946;26;20224;-69
2024/04/12 07:28:35;;;;;;;3.03;2.50;;;16.90;63.70;;;;;;5417776;26;20775;-69
2024/04/12 07:31:04;;;;;;;3.42;3.22;;;16.90;64.60;;;;;;5418170;26;20228;-68
2024/04/12 07:33:33;;;;;;;2.92;2.63;;;16.90;64.20;;;;;;5417674;26;20224;-67
2024/04/12 07:35:59;;;;;;;4.82;2.88;;;17.00;64.20;;;;;;5418064;26;20637;-67
2024/04/12 07:38:25;;;;;;;3.28;3.08;;;17.00;64.20;;;;;;5418363;26;20228;-69
2024/04/12 07:40:53;;;;;;;4.50;3.10;;;17.00;64.30;;;;;;5417268;26;20258;-65
2024/04/12 07:43:19;;;;;;;4.35;3.08;;;17.00;64.30;;;;;;5418199;26;20224;-65
2024/04/12 07:45:44;;;;;;;2.97;2.70;;;17.00;64.50;;;;;;5417874;26;20224;-66
2024/04/12 07:50:48;;;;;;;3.17;2.88;;;17.00;64.40;;;;;;5417599;26;20294;-67
2024/04/12 07:53:23;;;;;;;3.00;2.80;;;17.10;64.50;;;;;;5418041;26;20220;-67
2024/04/12 07:56:00;;;;;;;5.05;3.05;;;17.00;64.50;;;;;;5416927;26;20224;-67
2024/04/12 07:58:27;;;;;;;3.05;2.83;;;17.00;64.60;;;;;;5418149;26;20346;-66
2024/04/12 08:00:58;;;;;;;5.00;3.50;;;17.10;64.50;;;;;;5416598;26;20225;-67
2024/04/12 08:03:26;;;;;;;5.05;2.85;;;17.10;64.50;;;;;;5417313;26;20216;-67
2024/04/12 08:06:03;;;;;;;3.05;2.85;;;17.10;64.70;;;;;;5417602;26;20288;-68
2024/04/12 08:08:29;;;;;;;3.40;3.10;;;17.10;64.50;;;;;;5418086;26;20694;-68
2024/04/12 08:10:58;;;;;;;3.65;3.35;;;17.10;65.10;;;;;;5416795;26;20258;-63
2024/04/12 08:13:28;;;;;;;3.97;3.38;;;17.10;65.30;;;;;;5418047;26;20243;-63
2024/04/12 08:16:00;;;;;;;4.80;3.40;;;17.10;65.40;;;;;;5416709;26;20272;-64
2024/04/12 08:18:28;;;;;;;3.35;3.05;;;17.10;66.50;;;;;;5417929;26;20323;-63
2024/04/12 08:21:01;;;;;;;3.67;3.38;;;17.20;65.60;;;;;;5416926;26;20228;-64
2024/04/12 08:23:29;;;;;;;6.15;3.30;;;17.20;65.60;;;;;;5416591;26;20591;-63
2024/04/12 08:25:58;;;;;;;3.95;3.13;;;17.20;65.50;;;;;;5417358;26;20247;-63
2024/04/12 08:28:24;;;;;;;8.05;3.20;;;17.20;65.50;;;;;;5417558;26;20572;-65
2024/04/12 08:30:53;;;;;;;3.70;3.33;;;17.20;65.50;;;;;;5416279;26;20672;-65
2024/04/12 08:33:24;;;;;;;5.05;3.22;;;17.20;65.50;;;;;;5417515;26;20349;-65
2024/04/12 08:35:55;;;;;;;4.35;3.30;;;17.20;65.40;;;;;;5417125;26;20263;-64
2024/04/12 08:38:22;;;;;;;4.15;3.00;;;17.20;65.40;;;;;;5416824;26;20232;-65
2024/04/12 08:40:48;;;;;;;4.78;3.45;;;17.20;65.50;;;;;;5417024;26;20264;-64
2024/04/12 08:43:15;;;;;;;3.80;3.25;;;17.20;65.40;;;;;;5386246;26;20221;-64
2024/04/12 08:45:43;;;;;;;4.03;3.50;;;17.30;65.50;;;;;;5385015;26;20271;-64
2024/04/12 08:48:09;;;;;;;3.55;3.00;;;17.30;65.50;;;;;;5417032;26;20280;-65
2024/04/12 08:50:36;;;;;;;3.53;3.22;;;17.30;65.40;;;;;;5356576;26;20220;-66
2024/04/12 08:53:11;;;;;;;4.82;3.35;;;17.30;65.40;;;;;;5384748;26;20228;-66
2024/04/12 08:55:42;;;;;;;3.70;3.40;;;17.30;65.40;;;;;;5387679;26;20262;-65
2024/04/12 08:58:08;;;;;;;5.55;3.08;;;17.40;65.40;;;;;;5416245;26;20217;-66
2024/04/12 09:00:33;;;;;;;2.83;2.63;;;17.40;65.50;;;;;;5385948;26;20618;-65
2024/04/12 09:03:04;;;;;;;4.82;3.50;;;17.40;65.40;;;;;;5356662;26;20714;-64
2024/04/12 09:05:35;;;;;;;3.67;3.10;;;17.50;65.40;;;;;;5415496;26;20225;-66
2024/04/12 09:08:03;;;;;;;6.53;3.30;;;17.50;65.20;;;;;;5416688;26;20271;-66
2024/04/12 09:10:35;;;;;;;4.95;3.53;;;17.50;65.20;;;;;;5416851;26;20251;-64
2024/04/12 09:13:07;;;;;;;4.97;3.25;;;17.50;65.20;;;;;;5415646;26;20224;-65
2024/04/12 09:15:45;;;;;;;3.63;3.10;;;17.50;65.20;;;;;;5417260;26;20240;-68
2024/04/12 09:18:19;;;;;;;3.55;3.25;;;17.50;65.20;;;;;;5417015;26;20228;-68
2024/04/12 09:20:52;;;;;;;3.58;3.28;;;17.50;65.30;;;;;;5415871;26;20590;-68
2024/04/12 09:23:19;;;;;;;3.53;3.20;;;17.50;65.30;;;;;;5417050;26;20687;-67
2024/04/12 09:25:54;;;;;;;3.38;3.08;;;17.50;65.10;;;;;;5416432;26;20221;-67
2024/04/12 09:28:22;;;;;;;3.63;3.20;;;17.50;65.10;;;;;;5416148;26;20586;-67
2024/04/12 09:33:32;;;;;;;5.43;3.60;;;17.60;64.90;;;;;;5415790;26;20313;-67
2024/04/12 09:36:03;;;;;;;3.70;3.05;;;17.60;64.80;;;;;;5385018;26;20228;-68
2024/04/12 09:38:31;;;;;;;5.38;3.72;;;17.60;64.70;;;;;;5416473;26;20216;-68
2024/04/12 09:41:02;;;;;;;4.05;3.38;;;17.70;64.60;;;;;;5415480;26;20228;-67
2024/04/12 09:43:31;;;;;;;5.05;3.40;;;17.70;64.60;;;;;;5387163;26;20255;-67
2024/04/12 09:46:17;;;;;;;3.15;2.85;;;17.70;64.60;;;;;;5416327;26;20217;-68
2024/04/12 10:38:34;;;;;;;4.00;3.28;;;17.90;65.20;;;;;;5340582;26;20262;-67
2024/04/12 10:41:02;;;;;;;5.68;3.33;;;17.90;65.20;;;;;;5415455;26;20212;-67
2024/04/12 10:43:31;;;;;;;5.22;3.40;;;18.00;65.10;;;;;;5414712;26;20334;-68
2024/04/12 10:45:58;;;;;;;3.47;2.90;;;18.00;65.00;;;;;;5384898;26;20237;-68
2024/04/12 10:48:24;;;;;;;3.88;3.50;;;18.10;64.80;;;;;;5416966;26;21070;-69
2024/04/12 10:50:49;;;;;;;3.78;3.30;;;18.10;64.70;;;;;;5414170;26;20212;-70
2024/04/12 10:53:17;;;;;;;3.75;3.25;;;18.10;64.50;;;;;;5415443;26;20259;-69
2024/04/12 10:55:44;;;;;;;4.05;3.63;;;18.20;64.60;;;;;;5384383;26;20682;-67
2024/04/12 10:58:14;;;;;;;5.70;3.28;;;18.20;64.60;;;;;;5414570;26;20263;-69
2024/04/12 11:00:47;;;;;;;4.60;3.20;;;18.20;64.50;;;;;;5415132;26;20259;-67
2024/04/12 11:03:18;;;;;;;4.05;3.40;;;18.20;64.50;;;;;;5415254;26;20228;-67
2024/04/12 11:05:48;;;;;;;4.55;3.55;;;18.20;64.50;;;;;;5414098;26;20259;-67
2024/04/12 11:08:14;;;;;;;4.75;3.08;;;18.30;64.70;;;;;;5384166;26;20221;-66
2024/04/12 11:10:40;;;;;;;5.43;3.40;;;18.20;64.60;;;;;;5354705;26;20254;-67
2024/04/12 11:13:07;;;;;;;4.10;3.58;;;18.30;64.60;;;;;;5383338;26;20217;-67
2024/04/12 11:31:52;;;;;;;3.95;3.45;;;18.30;64.80;;;;;;5414634;26;20328;-69
2024/04/12 11:34:19;;;;;;;4.03;3.10;;;18.40;64.50;;;;;;5413962;26;20225;-69
2024/04/12 11:36:44;;;;;;;4.82;3.25;;;18.50;64.40;;;;;;5386000;26;20216;-70
2024/04/12 11:39:17;;;;;;;5.13;3.15;;;18.50;64.50;;;;;;5418451;26;20250;-69
2024/04/12 11:41:46;;;;;;;4.07;3.67;;;18.50;64.30;;;;;;5417315;26;20216;-70
2024/04/12 11:44:17;;;;;;;4.32;3.17;;;18.60;64.20;;;;;;5418413;26;20321;-69
2024/04/12 11:46:46;;;;;;;4.63;3.53;;;18.60;64.10;;;;;;5387329;26;20217;-70
2024/04/12 11:49:25;;;;;;;4.22;3.42;;;18.60;64.00;;;;;;5418365;26;20225;-70
2024/04/12 11:52:02;;;;;;;3.92;3.50;;;18.60;63.90;;;;;;5417987;26;20216;-70
2024/04/12 11:54:29;;;;;;;3.10;2.80;;;18.70;63.80;;;;;;5417484;26;20313;-69
2024/04/12 11:56:59;;;;;;;3.75;3.20;;;18.80;63.70;;;;;;5417789;26;20321;-68
2024/04/12 11:59:27;;;;;;;4.40;3.33;;;18.80;63.70;;;;;;5418205;26;20329;-68
2024/04/12 12:01:57;;;;;;;4.82;3.17;;;18.80;63.80;;;;;;5416865;26;20255;-69
2024/04/12 12:04:24;;;;;;;3.13;2.83;;;18.80;63.70;;;;;;5359197;26;20350;-68
2024/04/12 12:06:49;;;;;;;5.45;3.63;;;18.80;63.70;;;;;;5417579;26;20321;-69
2024/04/12 12:09:15;;;;;;;4.07;3.22;;;18.80;63.60;;;;;;5417173;26;20228;-68
2024/04/12 12:11:43;;;;;;;3.28;2.78;;;18.80;63.50;;;;;;5417699;26;20224;-69
2024/04/12 12:14:09;;;;;;;4.65;3.28;;;18.80;63.50;;;;;;5418231;26;20259;-69
2024/04/12 12:16:36;;;;;;;3.50;2.80;;;18.90;63.50;;;;;;5420416;26;20288;-70
2024/04/12 12:19:01;;;;;;;3.78;3.30;;;18.90;63.30;;;;;;5417733;26;20224;-69
2024/04/12 12:21:28;;;;;;;4.45;3.50;;;18.90;63.40;;;;;;5417970;26;20729;-68
2024/04/12 12:23:55;;;;;;;3.92;2.42;;;18.90;63.40;;;;;;5385797;26;20229;-69
2024/04/12 12:26:22;;;;;;;3.47;3.17;;;18.80;63.40;;;;;;5417756;26;20224;-68
2024/04/12 12:28:47;;;;;;;3.95;2.85;;;18.80;63.60;;;;;;5417268;26;20233;-68
2024/04/12 12:31:17;;;;;;;3.33;3.00;;;18.80;63.60;;;;;;5416831;26;20225;-68
2024/04/12 12:33:45;;;;;;;3.10;2.80;;;18.80;63.50;;;;;;5387025;26;20225;-69
2024/04/12 12:36:11;;;;;;;3.42;2.70;;;18.90;63.40;;;;;;5416816;26;20599;-69
2024/04/12 12:38:40;;;;;;;4.20;3.05;;;18.90;63.30;;;;;;5417624;26;20285;-69
2024/04/12 12:41:06;;;;;;;4.38;2.88;;;18.80;63.30;;;;;;5417663;26;20227;-68
2024/04/12 12:43:32;;;;;;;4.43;3.25;;;18.90;63.30;;;;;;5416734;26;20217;-68
2024/04/12 12:45:58;;;;;;;3.13;2.83;;;18.90;63.30;;;;;;5417105;26;20217;-69
2024/04/12 12:48:27;;;;;;;3.25;2.95;;;18.90;63.20;;;;;;5416886;26;20322;-69
2024/04/12 12:50:53;;;;;;;3.35;3.00;;;18.90;63.10;;;;;;5416305;26;20217;-70
2024/04/12 12:53:22;;;;;;;4.38;3.10;;;19.00;63.20;;;;;;5417525;26;20296;-69
2024/04/12 12:55:55;;;;;;;3.33;2.75;;;19.00;63.10;;;;;;5417086;26;20216;-68
2024/04/12 12:58:24;;;;;;;3.38;3.08;;;19.00;63.00;;;;;;5416561;26;20588;-68
2024/04/12 13:00:50;;;;;;;3.85;2.80;;;19.10;63.00;;;;;;5417008;26;20220;-69
2024/04/12 13:03:25;;;;;;;3.17;2.70;;;19.10;62.90;;;;;;5417314;26;20225;-68
2024/04/12 13:05:52;;;;;;;2.67;2.47;;;19.20;62.80;;;;;;5416191;26;20224;-68
2024/04/12 13:08:18;;;;;;;3.00;2.80;;;19.30;62.70;;;;;;5417275;26;20220;-68
2024/04/12 13:10:46;;;;;;;3.38;2.90;;;19.30;62.60;;;;;;5416866;26;20216;-68
2024/04/12 13:13:17;;;;;;;3.05;2.67;;;19.30;62.50;;;;;;5416470;26;20216;-69
2024/04/12 13:15:52;;;;;;;2.95;2.60;;;19.30;62.40;;;;;;5416577;26;20268;-69
2024/04/12 13:18:18;;;;;;;3.35;3.05;;;19.30;62.50;;;;;;5386505;26;20251;-69
2024/04/12 13:20:43;;;;;;;3.38;2.78;;;19.30;62.40;;;;;;5416657;26;20273;-69
2024/04/12 13:23:09;;;;;;;2.80;2.60;;;19.30;62.40;;;;;;5417063;26;20220;-67
2024/04/12 13:25:37;;;;;;;3.92;2.67;;;19.40;62.40;;;;;;5416194;26;20721;-68
2024/04/12 13:28:11;;;;;;;2.55;2.30;;;19.40;62.40;;;;;;5416749;26;20216;-68
2024/04/12 13:30:40;;;;;;;2.92;2.70;;;19.30;62.40;;;;;;5417038;26;20254;-69
2024/04/12 13:33:08;;;;;;;4.20;2.53;;;19.30;62.40;;;;;;5416162;26;20225;-69
2024/04/12 13:35:40;;;;;;;2.70;2.50;;;19.30;62.40;;;;;;5416896;26;20259;-69
2024/04/12 13:38:13;;;;;;;2.55;2.30;;;19.40;62.40;;;;;;5416813;26;20221;-70
2024/04/12 13:40:54;;;;;;;3.28;2.45;;;19.40;62.40;;;;;;5384687;26;20526;-69
2024/04/12 13:43:20;;;;;;;2.30;2.10;;;19.40;62.40;;;;;;5416766;26;20742;-68
2024/04/12 13:51:18;;;;;;;3.60;2.20;;;19.30;62.50;;;;;;5416866;26;20259;-70
2024/04/12 13:53:44;;;;;;;2.55;2.35;;;19.30;62.60;;;;;;5415469;26;20220;-69
2024/04/12 13:56:26;;;;;;;2.90;2.13;;;19.20;62.50;;;;;;5416476;26;20228;-68
2024/04/12 13:58:58;;;;;;;2.42;2.20;;;19.20;62.60;;;;;;5414727;26;20228;-68
2024/04/12 14:01:24;;;;;;;2.22;1.73;;;19.20;62.60;;;;;;5415695;26;20672;-68
2024/04/12 14:03:53;;;;;;;3.15;2.10;;;19.20;62.60;;;;;;5416021;26;20224;-68
2024/04/12 14:06:23;;;;;;;2.63;1.98;;;19.20;62.60;;;;;;5416311;26;20673;-68
2024/04/12 14:08:49;;;;;;;3.25;2.20;;;19.20;62.60;;;;;;5415019;26;20683;-68
2024/04/12 14:11:14;;;;;;;2.83;2.20;;;19.20;62.60;;;;;;5416306;26;20325;-68
2024/04/12 14:13:42;;;;;;;3.10;2.10;;;19.20;62.60;;;;;;5416019;26;20267;-69
2024/04/12 14:16:07;;;;;;;2.50;2.30;;;19.20;62.50;;;;;;5415155;26;20284;-70